Time;durP1;ratioP1;P1;durP2;ratioP2;P2;SDS_P1;SDS_P2;PMS_P1;PMS_P2;Temp;Humidity;BMP_temperature;BMP_pressure;BME280_temperature;BME280_humidity;BME280_pressure;Samples;Min_cycle;Max_cycle;Signal;HPM_P1;HPM_P2
2023/03/22 00:01:14;;;;;;;2.20;1.23;;;11.80;99.90;;;;;;5053135;28;20491;-36
2023/03/22 00:03:41;;;;;;;3.25;1.50;;;11.80;99.90;;;;;;5052307;28;20115;-36
2023/03/22 00:06:07;;;;;;;1.88;1.10;;;11.80;99.90;;;;;;5053206;28;20368;-40
2023/03/22 00:08:33;;;;;;;2.25;1.40;;;11.80;99.90;;;;;;5050644;28;20025;-41
2023/03/22 00:10:59;;;;;;;2.08;1.30;;;11.80;99.90;;;;;;5052077;28;20488;-40
2023/03/22 00:13:25;;;;;;;2.00;1.40;;;11.80;99.90;;;;;;5053852;28;20032;-41
2023/03/22 00:15:50;;;;;;;2.03;1.15;;;11.80;99.90;;;;;;5052381;28;20029;-40
2023/03/22 00:18:17;;;;;;;1.88;1.15;;;11.80;99.90;;;;;;5051552;28;20045;-40
2023/03/22 00:20:51;;;;;;;2.22;1.40;;;11.80;99.90;;;;;;5052085;28;20029;-39
2023/03/22 00:23:17;;;;;;;2.03;1.10;;;11.80;99.90;;;;;;5051102;28;20078;-40
2023/03/22 00:25:44;;;;;;;2.25;1.30;;;11.80;99.90;;;;;;5051248;28;20116;-39
2023/03/22 00:28:10;;;;;;;2.08;1.38;;;11.80;99.90;;;;;;5051092;28;20029;-40
2023/03/22 00:30:35;;;;;;;2.38;1.40;;;11.80;99.90;;;;;;5051268;28;20025;-41
2023/03/22 00:33:01;;;;;;;2.88;1.50;;;11.80;99.90;;;;;;5050902;28;20036;-40
2023/03/22 00:35:27;;;;;;;1.98;1.20;;;11.80;99.90;;;;;;5050862;28;20175;-39
2023/03/22 00:37:52;;;;;;;2.45;1.48;;;11.80;99.90;;;;;;5050849;28;20021;-40
2023/03/22 00:40:18;;;;;;;2.28;1.20;;;11.80;99.90;;;;;;5051021;28;20017;-40
2023/03/22 00:42:43;;;;;;;2.10;1.25;;;11.80;99.90;;;;;;5050929;28;20025;-38
2023/03/22 00:45:10;;;;;;;1.95;1.25;;;11.80;99.90;;;;;;5051087;28;20033;-37
2023/03/22 00:47:36;;;;;;;1.95;1.35;;;11.80;99.90;;;;;;5049749;28;20475;-40
2023/03/22 00:50:04;;;;;;;2.10;1.27;;;11.70;99.90;;;;;;5051017;28;20032;-41
2023/03/22 00:52:30;;;;;;;3.72;1.30;;;11.80;99.90;;;;;;5050897;28;20124;-38
2023/03/22 00:54:56;;;;;;;2.03;1.30;;;11.80;99.90;;;;;;5050786;28;20550;-38
2023/03/22 00:57:22;;;;;;;2.72;1.70;;;11.80;99.90;;;;;;5050710;28;20028;-40
2023/03/22 00:59:47;;;;;;;1.88;1.25;;;11.80;99.90;;;;;;5050881;28;20064;-42
2023/03/22 01:02:14;;;;;;;2.83;1.58;;;11.80;99.90;;;;;;5050720;28;20037;-41
2023/03/22 01:04:45;;;;;;;2.45;1.50;;;11.80;99.90;;;;;;5050703;28;20029;-40
2023/03/22 01:07:16;;;;;;;2.58;1.30;;;11.80;99.90;;;;;;5050649;28;20506;-39
2023/03/22 01:09:54;;;;;;;2.30;1.30;;;11.80;99.90;;;;;;5050785;28;20491;-39
2023/03/22 01:12:20;;;;;;;6.70;1.77;;;11.70;99.90;;;;;;5052186;28;20052;-38
2023/03/22 01:14:46;;;;;;;1.55;1.10;;;11.80;99.90;;;;;;5052334;28;20059;-40
2023/03/22 01:17:12;;;;;;;2.92;1.48;;;11.80;99.90;;;;;;5051494;28;20383;-40
2023/03/22 01:19:37;;;;;;;1.90;1.30;;;11.80;99.90;;;;;;5052047;28;20029;-41
2023/03/22 01:22:07;;;;;;;2.58;1.48;;;11.70;99.90;;;;;;5054401;28;20455;-40
2023/03/22 01:24:33;;;;;;;2.03;1.40;;;11.80;99.90;;;;;;5054303;28;20032;-41
2023/03/22 01:26:58;;;;;;;1.70;1.23;;;11.80;99.90;;;;;;5054126;28;20433;-40
2023/03/22 01:29:25;;;;;;;2.28;1.45;;;11.80;99.90;;;;;;5054262;28;20033;-41
2023/03/22 01:31:51;;;;;;;1.73;1.38;;;11.80;99.90;;;;;;5054003;28;20493;-42
2023/03/22 01:34:17;;;;;;;1.95;1.30;;;11.80;99.90;;;;;;5054108;28;20043;-40
2023/03/22 01:36:43;;;;;;;2.10;1.33;;;11.80;99.90;;;;;;5053885;28;20088;-40
2023/03/22 01:39:09;;;;;;;2.58;1.45;;;11.80;99.90;;;;;;5054097;28;20028;-40
2023/03/22 01:41:36;;;;;;;2.20;1.20;;;11.80;99.90;;;;;;5054051;28;20021;-41
2023/03/22 01:44:07;;;;;;;1.60;1.25;;;11.80;99.90;;;;;;5053927;28;20021;-39
2023/03/22 01:46:33;;;;;;;2.78;1.40;;;11.80;99.90;;;;;;5053570;28;20028;-41
2023/03/22 01:49:01;;;;;;;2.85;1.30;;;11.70;99.90;;;;;;5053898;28;20025;-40
2023/03/22 01:51:27;;;;;;;2.38;1.50;;;11.80;99.90;;;;;;5054481;28;20032;-40
2023/03/22 01:54:06;;;;;;;5.22;1.30;;;11.70;99.90;;;;;;5054428;28;20028;-40
2023/03/22 01:56:37;;;;;;;1.80;1.33;;;11.70;99.90;;;;;;5053522;28;20108;-40
2023/03/22 01:59:04;;;;;;;2.13;1.48;;;11.70;99.90;;;;;;5053630;28;20064;-40
2023/03/22 02:01:30;;;;;;;2.25;1.48;;;11.70;99.90;;;;;;5053541;28;20457;-42
2023/03/22 02:04:14;;;;;;;1.75;1.40;;;11.70;99.90;;;;;;5054461;28;20029;-40
2023/03/22 02:06:40;;;;;;;2.55;1.55;;;11.70;99.90;;;;;;5054299;28;20021;-40
2023/03/22 02:09:09;;;;;;;2.60;1.40;;;11.70;99.90;;;;;;5053725;28;20057;-36
2023/03/22 02:11:41;;;;;;;2.42;1.40;;;11.70;99.90;;;;;;5056066;28;20091;-39
2023/03/22 02:14:24;;;;;;;3.08;1.80;;;11.70;99.90;;;;;;5053801;28;20056;-36
2023/03/22 02:17:16;;;;;;;2.35;1.50;;;11.70;99.90;;;;;;5055455;28;20057;-38
2023/03/22 02:20:20;;;;;;;2.13;1.23;;;11.70;99.90;;;;;;5053424;28;20429;-36
2023/03/22 02:23:29;;;;;;;2.95;1.60;;;11.70;99.90;;;;;;5054411;28;20426;-40
2023/03/22 02:26:19;;;;;;;2.15;1.40;;;11.70;99.90;;;;;;5044381;28;20032;-37
2023/03/22 02:28:56;;;;;;;2.83;1.60;;;11.70;99.90;;;;;;5055285;28;20060;-39
2023/03/22 02:31:54;;;;;;;3.20;1.40;;;11.70;99.90;;;;;;5054201;28;20021;-36
2023/03/22 02:34:23;;;;;;;2.80;1.50;;;11.70;99.90;;;;;;5052336;28;20044;-38
2023/03/22 02:37:22;;;;;;;2.20;1.40;;;11.70;99.90;;;;;;5054659;28;20379;-36
2023/03/22 02:40:13;;;;;;;2.33;1.60;;;11.70;99.90;;;;;;5054167;28;20055;-36
2023/03/22 02:42:53;;;;;;;3.30;1.52;;;11.70;99.90;;;;;;5054464;28;20025;-36
2023/03/22 02:45:33;;;;;;;2.35;1.40;;;11.70;99.90;;;;;;5055089;28;20321;-36
2023/03/22 02:48:29;;;;;;;5.80;1.83;;;11.60;99.90;;;;;;5053937;28;20044;-40
2023/03/22 02:51:14;;;;;;;2.45;1.58;;;11.60;99.90;;;;;;5054657;28;20031;-39
2023/03/22 02:53:54;;;;;;;1.98;1.38;;;11.70;99.90;;;;;;5054729;28;20032;-36
2023/03/22 02:56:29;;;;;;;3.00;1.92;;;11.60;99.90;;;;;;5053148;28;20031;-36
2023/03/22 02:58:58;;;;;;;4.15;1.58;;;11.60;99.90;;;;;;5051380;28;20017;-37
2023/03/22 03:01:29;;;;;;;3.03;1.30;;;11.60;99.90;;;;;;5054368;28;20111;-40
2023/03/22 03:04:03;;;;;;;2.22;1.23;;;11.60;99.90;;;;;;5052422;28;20554;-39
2023/03/22 03:06:32;;;;;;;;;;;11.60;99.90;;;;;;5055547;28;20082;-37
2023/03/22 03:09:02;;;;;;;3.97;1.67;;;11.60;99.90;;;;;;5052440;28;20007;-36
2023/03/22 03:11:28;;;;;;;2.45;1.38;;;11.60;99.90;;;;;;5052361;28;20066;-36
2023/03/22 03:13:53;;;;;;;3.50;1.50;;;11.60;99.90;;;;;;5052142;28;20029;-36
2023/03/22 03:16:21;;;;;;;2.15;1.60;;;11.60;99.90;;;;;;5052085;28;20105;-39
2023/03/22 03:18:57;;;;;;;2.38;1.48;;;11.60;99.90;;;;;;5052225;28;20025;-36
2023/03/22 03:21:31;;;;;;;3.35;1.25;;;11.60;99.90;;;;;;5053031;28;20021;-39
2023/03/22 03:24:21;;;;;;;2.85;1.73;;;11.50;99.90;;;;;;5052434;28;20025;-36
2023/03/22 03:27:01;;;;;;;2.75;1.40;;;11.60;99.90;;;;;;5051850;28;20061;-36
2023/03/22 03:29:45;;;;;;;3.40;1.52;;;11.60;99.90;;;;;;5051830;28;20027;-36
2023/03/22 03:32:25;;;;;;;3.30;1.47;;;11.60;99.90;;;;;;5051999;28;20040;-36
2023/03/22 03:34:58;;;;;;;2.80;1.63;;;11.60;99.90;;;;;;5051736;28;20366;-36
2023/03/22 03:37:34;;;;;;;1.63;1.20;;;11.50;99.90;;;;;;5051670;28;20057;-37
2023/03/22 03:40:13;;;;;;;2.10;1.40;;;11.50;99.90;;;;;;5051782;28;20018;-36
2023/03/22 03:42:47;;;;;;;2.33;1.50;;;11.50;99.90;;;;;;5051005;28;20104;-36
2023/03/22 03:45:14;;;;;;;;;;;11.50;99.90;;;;;;5052156;28;20104;-36
2023/03/22 03:47:42;;;;;;;3.42;1.70;;;11.50;99.90;;;;;;5051472;28;20275;-36
2023/03/22 03:50:08;;;;;;;1.90;1.40;;;11.60;99.90;;;;;;5051500;28;20031;-36
2023/03/22 03:52:34;;;;;;;3.20;1.50;;;11.50;99.90;;;;;;5051377;28;20338;-38
2023/03/22 03:55:00;;;;;;;2.45;1.60;;;11.60;99.90;;;;;;5051487;28;20116;-36
2023/03/22 03:57:26;;;;;;;1.80;1.20;;;11.50;99.90;;;;;;5051299;28;20057;-36
2023/03/22 03:59:51;;;;;;;2.92;1.30;;;11.50;99.90;;;;;;5051599;28;20048;-36
2023/03/22 04:02:17;;;;;;;3.78;1.60;;;11.50;99.90;;;;;;5051431;28;20506;-37
2023/03/22 04:04:42;;;;;;;2.53;1.52;;;11.50;99.90;;;;;;5050484;28;20067;-36
2023/03/22 04:07:08;;;;;;;3.38;1.58;;;11.50;99.90;;;;;;5051209;28;20394;-36
2023/03/22 04:09:36;;;;;;;2.40;1.40;;;11.50;99.90;;;;;;5051666;28;20051;-36
2023/03/22 04:12:02;;;;;;;1.75;1.08;;;11.50;99.90;;;;;;5051382;28;20028;-36
2023/03/22 04:14:28;;;;;;;2.13;1.35;;;11.50;99.90;;;;;;5051186;28;20029;-36
2023/03/22 04:16:54;;;;;;;3.05;1.65;;;11.50;99.90;;;;;;5051074;28;20025;-36
2023/03/22 04:19:21;;;;;;;2.65;1.40;;;11.50;99.90;;;;;;5051093;28;20502;-36
2023/03/22 04:21:46;;;;;;;1.90;1.30;;;11.50;99.90;;;;;;5051279;28;20029;-36
2023/03/22 04:24:12;;;;;;;4.63;1.73;;;11.50;99.90;;;;;;5051124;28;20017;-36
2023/03/22 04:26:38;;;;;;;2.58;1.33;;;11.50;99.90;;;;;;5050907;28;20074;-36
2023/03/22 04:29:04;;;;;;;3.08;1.23;;;11.50;99.90;;;;;;5051151;28;20033;-36
2023/03/22 04:31:31;;;;;;;3.20;1.52;;;11.50;99.90;;;;;;5051102;28;20100;-38
2023/03/22 04:33:59;;;;;;;2.83;1.35;;;11.50;99.90;;;;;;5050793;28;20021;-36
2023/03/22 04:36:30;;;;;;;2.03;1.27;;;11.50;99.90;;;;;;5051045;28;20025;-36
2023/03/22 04:38:56;;;;;;;2.00;1.20;;;11.50;99.90;;;;;;5051105;28;20424;-36
2023/03/22 04:41:21;;;;;;;5.13;1.17;;;11.50;99.90;;;;;;5050992;28;20096;-36
2023/03/22 04:43:49;;;;;;;3.47;1.70;;;11.50;99.90;;;;;;5050968;28;20053;-36
2023/03/22 04:46:15;;;;;;;2.13;1.10;;;11.50;99.90;;;;;;5050701;28;20036;-37
2023/03/22 04:48:41;;;;;;;3.60;1.80;;;11.50;99.90;;;;;;5050959;28;20436;-38
2023/03/22 04:51:09;;;;;;;2.08;1.40;;;11.40;99.90;;;;;;5052292;28;20396;-38
2023/03/22 04:53:38;;;;;;;2.63;1.33;;;11.40;99.90;;;;;;5050734;28;20024;-36
2023/03/22 04:56:06;;;;;;;2.47;1.27;;;11.50;99.90;;;;;;5054306;28;20027;-35
2023/03/22 04:58:34;;;;;;;3.30;1.70;;;11.50;99.90;;;;;;5054875;28;20017;-36
2023/03/22 05:01:01;;;;;;;2.20;1.15;;;11.40;99.90;;;;;;5054566;28;20040;-36
2023/03/22 05:03:26;;;;;;;2.80;1.48;;;11.40;99.90;;;;;;5054735;28;20033;-36
2023/03/22 05:05:55;;;;;;;2.75;1.50;;;11.40;99.90;;;;;;5054580;28;20078;-36
2023/03/22 05:08:23;;;;;;;3.33;1.63;;;11.40;99.90;;;;;;5054681;28;20495;-36
2023/03/22 05:10:51;;;;;;;2.65;1.77;;;11.40;99.90;;;;;;5054631;28;20065;-36
2023/03/22 05:13:20;;;;;;;3.42;2.25;;;11.40;99.90;;;;;;5054480;28;20099;-36
2023/03/22 05:15:47;;;;;;;3.17;2.15;;;11.40;99.90;;;;;;5054340;28;20083;-36
2023/03/22 05:18:19;;;;;;;5.70;2.13;;;11.40;99.90;;;;;;5054481;28;20017;-36
2023/03/22 05:20:45;;;;;;;2.65;1.90;;;11.40;99.90;;;;;;5054490;28;20521;-36
2023/03/22 05:23:12;;;;;;;4.32;2.10;;;11.40;99.90;;;;;;5054378;28;20458;-36
2023/03/22 05:25:38;;;;;;;3.03;1.70;;;11.40;99.90;;;;;;5054270;28;20088;-36
2023/03/22 05:28:05;;;;;;;4.30;2.05;;;11.40;99.90;;;;;;5054059;28;20427;-36
2023/03/22 05:30:31;;;;;;;3.53;1.60;;;11.40;99.90;;;;;;5054281;28;20095;-36
2023/03/22 05:33:02;;;;;;;4.55;2.20;;;11.40;99.90;;;;;;5054034;28;20495;-37
2023/03/22 05:35:32;;;;;;;4.35;1.95;;;11.40;99.90;;;;;;5054180;28;20029;-36
2023/03/22 05:37:58;;;;;;;2.55;1.80;;;11.40;99.90;;;;;;5055701;28;20021;-35
2023/03/22 05:40:24;;;;;;;2.80;1.60;;;11.40;99.90;;;;;;5054597;28;20536;-36
2023/03/22 05:42:50;;;;;;;2.83;1.70;;;11.40;99.90;;;;;;5053862;28;20058;-36
2023/03/22 05:45:16;;;;;;;3.30;1.50;;;11.40;99.90;;;;;;5054022;28;20026;-36
2023/03/22 05:47:42;;;;;;;7.30;2.67;;;11.40;99.90;;;;;;5053657;28;20056;-35
2023/03/22 05:50:10;;;;;;;7.82;2.55;;;11.20;99.90;;;;;;5053903;28;20078;-35
2023/03/22 05:52:36;;;;;;;5.03;2.85;;;10.70;99.90;;;;;;5053793;28;20021;-35
2023/03/22 05:55:02;;;;;;;3.58;2.10;;;10.60;99.90;;;;;;5053631;28;20036;-35
2023/03/22 05:57:28;;;;;;;4.45;2.40;;;10.60;99.90;;;;;;5053471;28;20017;-35
2023/03/22 05:59:55;;;;;;;5.10;2.28;;;10.60;99.90;;;;;;5053766;28;20021;-35
2023/03/22 06:02:21;;;;;;;4.25;2.80;;;10.60;99.90;;;;;;5053608;28;20403;-37
2023/03/22 06:04:48;;;;;;;4.03;2.70;;;10.60;99.90;;;;;;5053360;28;20502;-36
2023/03/22 06:07:14;;;;;;;5.25;2.92;;;10.60;99.90;;;;;;5052333;28;20052;-36
2023/03/22 06:09:40;;;;;;;6.55;3.60;;;10.60;99.90;;;;;;5053489;28;20025;-35
2023/03/22 06:12:06;;;;;;;7.00;4.00;;;10.60;99.90;;;;;;5053537;28;20505;-39
2023/03/22 06:14:32;;;;;;;8.82;4.45;;;10.60;99.90;;;;;;5053283;28;20047;-37
2023/03/22 06:16:57;;;;;;;12.80;4.88;;;10.60;99.90;;;;;;5053036;28;20090;-35
2023/03/22 06:19:24;;;;;;;7.13;4.53;;;10.60;99.90;;;;;;5053352;28;20135;-36
2023/03/22 06:21:51;;;;;;;6.03;3.60;;;10.60;99.90;;;;;;5055261;28;20049;-35
2023/03/22 06:24:17;;;;;;;4.80;3.00;;;10.70;99.90;;;;;;5055273;28;20032;-40
2023/03/22 06:26:43;;;;;;;6.53;3.85;;;10.70;99.90;;;;;;5055075;28;20021;-39
2023/03/22 06:29:09;;;;;;;8.20;3.38;;;10.70;99.90;;;;;;5054489;28;20059;-38
2023/03/22 06:31:35;;;;;;;5.47;3.10;;;10.70;99.90;;;;;;5053803;28;20025;-39
2023/03/22 06:34:01;;;;;;;4.18;2.80;;;10.80;99.90;;;;;;5052879;28;20062;-36
2023/03/22 06:36:26;;;;;;;4.68;2.80;;;10.80;99.90;;;;;;5052777;28;20100;-36
2023/03/22 06:38:52;;;;;;;6.03;2.67;;;10.80;99.90;;;;;;5053224;28;20108;-40
2023/03/22 06:41:19;;;;;;;5.45;2.85;;;10.80;99.90;;;;;;5053761;28;20029;-38
2023/03/22 06:43:45;;;;;;;7.57;2.95;;;10.80;99.90;;;;;;5053368;28;20120;-37
2023/03/22 06:46:10;;;;;;;8.15;2.65;;;10.80;99.90;;;;;;5052485;28;20151;-35
2023/03/22 06:48:36;;;;;;;3.60;2.30;;;10.90;99.90;;;;;;5052769;28;20112;-35
2023/03/22 06:51:01;;;;;;;4.35;2.28;;;10.90;99.90;;;;;;5052727;28;20044;-41
2023/03/22 06:53:27;;;;;;;4.15;2.20;;;10.90;99.90;;;;;;5052628;28;20025;-38
2023/03/22 06:55:53;;;;;;;4.55;2.65;;;10.90;99.90;;;;;;5053083;28;20021;-36
2023/03/22 06:58:19;;;;;;;3.08;2.20;;;11.00;99.90;;;;;;5054711;28;20467;-36
2023/03/22 07:00:45;;;;;;;4.90;2.42;;;11.00;99.90;;;;;;5052438;28;20410;-35
2023/03/22 07:03:10;;;;;;;3.92;2.45;;;11.00;99.90;;;;;;5052599;28;20097;-38
2023/03/22 07:05:36;;;;;;;5.60;2.90;;;11.00;99.90;;;;;;5052238;28;20028;-40
2023/03/22 07:08:02;;;;;;;4.18;2.22;;;11.00;99.90;;;;;;5052235;28;20025;-36
2023/03/22 07:10:28;;;;;;;3.58;2.42;;;11.00;99.90;;;;;;5053341;28;20029;-38
2023/03/22 07:12:53;;;;;;;3.75;2.20;;;11.00;99.90;;;;;;5052911;28;20035;-39
2023/03/22 07:15:23;;;;;;;3.75;2.42;;;11.10;99.90;;;;;;5054645;28;20017;-38
2023/03/22 07:17:50;;;;;;;3.42;2.30;;;11.10;99.90;;;;;;5053360;28;20013;-36
2023/03/22 07:20:16;;;;;;;5.80;2.47;;;11.10;99.90;;;;;;5053235;28;20025;-39
2023/03/22 07:22:42;;;;;;;5.10;2.15;;;11.20;99.90;;;;;;5052464;28;20033;-35
2023/03/22 07:25:08;;;;;;;8.10;2.20;;;11.20;99.90;;;;;;5052529;28;20572;-38
2023/03/22 07:27:33;;;;;;;5.30;2.20;;;11.20;99.90;;;;;;5054007;28;20426;-36
2023/03/22 07:29:59;;;;;;;5.38;2.00;;;11.20;99.90;;;;;;5054267;28;20083;-38
2023/03/22 07:32:24;;;;;;;6.22;2.30;;;11.20;99.90;;;;;;5051977;28;20056;-37
2023/03/22 07:34:50;;;;;;;4.85;1.85;;;11.20;99.90;;;;;;5052524;28;20083;-39
2023/03/22 07:37:16;;;;;;;5.03;1.90;;;11.20;99.90;;;;;;5053546;28;20472;-35
2023/03/22 07:39:41;;;;;;;4.45;2.17;;;11.20;99.90;;;;;;5053079;28;20102;-37
2023/03/22 07:42:08;;;;;;;5.93;1.88;;;11.20;99.90;;;;;;5053741;28;20060;-37
2023/03/22 07:44:34;;;;;;;3.00;1.50;;;11.20;99.90;;;;;;5054642;28;20025;-36
2023/03/22 07:47:00;;;;;;;5.40;1.90;;;11.30;99.90;;;;;;5053125;28;20549;-36
2023/03/22 07:49:27;;;;;;;5.43;1.90;;;11.30;99.90;;;;;;5052861;28;20029;-36
2023/03/22 07:51:52;;;;;;;4.90;1.90;;;11.30;99.90;;;;;;5053525;28;20031;-35
2023/03/22 07:54:18;;;;;;;2.17;1.40;;;11.30;99.90;;;;;;5054079;28;20021;-36
2023/03/22 07:56:46;;;;;;;5.97;1.77;;;11.30;99.90;;;;;;5052014;28;20082;-38
2023/03/22 07:59:12;;;;;;;4.95;1.50;;;11.30;99.90;;;;;;5052270;28;20474;-39
2023/03/22 08:01:38;;;;;;;2.63;1.60;;;11.30;99.90;;;;;;5053710;28;20036;-38
2023/03/22 08:04:04;;;;;;;3.60;1.90;;;11.30;99.90;;;;;;5053529;28;20036;-38
2023/03/22 08:06:31;;;;;;;3.03;1.63;;;11.30;99.90;;;;;;5051528;28;20040;-37
2023/03/22 08:08:57;;;;;;;3.08;1.40;;;11.30;99.90;;;;;;5051327;28;20112;-35
2023/03/22 08:11:23;;;;;;;3.85;1.58;;;11.30;99.90;;;;;;5051929;28;20159;-36
2023/03/22 08:13:49;;;;;;;4.28;1.70;;;11.40;99.90;;;;;;5053051;28;20029;-39
2023/03/22 08:16:15;;;;;;;4.05;1.60;;;11.40;99.90;;;;;;5052788;28;20049;-36
2023/03/22 08:18:40;;;;;;;2.42;1.45;;;11.40;99.90;;;;;;5051878;28;20021;-36
2023/03/22 08:21:06;;;;;;;3.65;1.70;;;11.40;99.90;;;;;;5052643;28;20025;-35
2023/03/22 08:23:32;;;;;;;2.17;1.30;;;11.40;99.90;;;;;;5052194;28;20063;-38
2023/03/22 08:25:58;;;;;;;4.95;1.83;;;11.40;99.90;;;;;;5051894;28;20020;-40
2023/03/22 08:28:23;;;;;;;2.88;1.48;;;11.40;99.90;;;;;;5052155;28;20087;-38
2023/03/22 08:30:49;;;;;;;2.83;1.67;;;11.40;99.90;;;;;;5051615;28;20037;-38
2023/03/22 08:33:15;;;;;;;2.85;1.65;;;11.50;99.90;;;;;;5052415;28;20061;-36
2023/03/22 08:35:41;;;;;;;2.85;1.48;;;11.50;99.90;;;;;;5052256;28;20075;-35
2023/03/22 08:38:07;;;;;;;6.03;1.80;;;11.50;99.90;;;;;;5052190;28;20029;-38
2023/03/22 08:40:33;;;;;;;2.42;1.40;;;11.50;99.90;;;;;;5052392;28;20067;-40
2023/03/22 08:42:58;;;;;;;4.82;1.55;;;11.50;99.90;;;;;;5051827;28;20017;-35
2023/03/22 08:45:25;;;;;;;3.58;1.80;;;11.50;99.90;;;;;;5051883;28;20048;-39
2023/03/22 08:47:51;;;;;;;1.50;1.13;;;11.50;99.90;;;;;;5051661;28;20467;-35
2023/03/22 08:50:17;;;;;;;4.00;1.48;;;11.50;99.90;;;;;;5051998;28;20028;-38
2023/03/22 08:52:42;;;;;;;2.53;1.50;;;11.50;99.90;;;;;;5052082;28;20437;-38
2023/03/22 08:55:09;;;;;;;2.30;1.30;;;11.50;99.90;;;;;;5052027;28;20025;-36
2023/03/22 08:57:35;;;;;;;2.22;1.17;;;11.50;99.90;;;;;;5051662;28;20017;-35
2023/03/22 09:00:05;;;;;;;2.50;1.48;;;11.60;99.90;;;;;;5051390;28;20024;-39
2023/03/22 09:02:31;;;;;;;1.90;1.20;;;11.60;99.90;;;;;;5051473;28;20419;-36
2023/03/22 09:04:56;;;;;;;2.58;1.20;;;11.60;99.90;;;;;;5051404;28;20033;-37
2023/03/22 09:07:23;;;;;;;2.05;1.23;;;11.60;99.90;;;;;;5052323;28;20025;-38
2023/03/22 09:09:49;;;;;;;2.40;1.20;;;11.60;99.90;;;;;;5050879;28;20490;-36
2023/03/22 09:12:15;;;;;;;2.28;1.15;;;11.60;99.90;;;;;;5050818;28;20033;-37
2023/03/22 09:14:41;;;;;;;2.33;1.20;;;11.60;99.90;;;;;;5051259;28;20023;-39
2023/03/22 09:17:07;;;;;;;2.85;1.48;;;11.70;99.90;;;;;;5050788;28;20029;-37
2023/03/22 09:19:32;;;;;;;2.45;1.35;;;11.70;99.90;;;;;;5051204;28;20025;-36
2023/03/22 09:21:58;;;;;;;1.58;1.05;;;11.70;99.90;;;;;;5051326;28;20104;-39
2023/03/22 09:24:24;;;;;;;2.15;1.20;;;11.70;99.90;;;;;;5049895;28;20479;-39
2023/03/22 09:26:50;;;;;;;1.20;0.80;;;11.70;99.90;;;;;;5050692;28;20021;-35
2023/03/22 09:29:16;;;;;;;3.10;1.05;;;11.70;99.90;;;;;;5051012;28;20025;-39
2023/03/22 09:31:42;;;;;;;2.53;1.30;;;11.70;99.90;;;;;;5050805;28;20108;-38
2023/03/22 09:34:07;;;;;;;1.60;0.85;;;11.70;99.90;;;;;;5050691;28;20025;-37
2023/03/22 09:36:33;;;;;;;1.77;0.90;;;11.70;99.90;;;;;;5050914;28;20024;-36
2023/03/22 09:38:59;;;;;;;1.55;1.10;;;11.70;99.90;;;;;;5050949;28;20013;-38
2023/03/22 09:41:30;;;;;;;2.38;1.30;;;11.80;99.90;;;;;;5053226;28;20083;-38
2023/03/22 09:44:01;;;;;;;1.77;1.15;;;11.80;99.90;;;;;;5054175;28;20029;-37
2023/03/22 09:46:35;;;;;;;1.80;1.10;;;11.80;99.90;;;;;;5054150;28;20059;-35
2023/03/22 09:49:05;;;;;;;2.00;1.05;;;11.80;99.90;;;;;;5054725;28;20039;-35
2023/03/22 09:51:43;;;;;;;3.85;1.38;;;11.80;99.90;;;;;;5054201;28;20040;-35
2023/03/22 09:54:16;;;;;;;1.60;1.00;;;11.80;99.90;;;;;;5053950;28;20076;-38
2023/03/22 09:56:45;;;;;;;2.05;1.20;;;11.80;99.90;;;;;;5054101;28;20025;-35
2023/03/22 09:59:21;;;;;;;1.48;1.10;;;11.80;99.90;;;;;;5054132;28;20108;-36
2023/03/22 10:02:03;;;;;;;1.95;1.20;;;11.80;99.90;;;;;;5054426;28;20449;-38
2023/03/22 10:05:08;;;;;;;2.65;1.10;;;11.80;99.90;;;;;;5053554;28;20032;-36
2023/03/22 10:07:51;;;;;;;2.53;1.17;;;11.90;99.90;;;;;;5031029;28;20033;-35
2023/03/22 10:10:22;;;;;;;1.73;0.90;;;11.90;99.90;;;;;;5031369;28;20026;-39
2023/03/22 10:13:22;;;;;;;2.78;1.10;;;11.90;99.90;;;;;;5045091;28;20049;-35
2023/03/22 10:15:51;;;;;;;1.42;0.82;;;11.90;99.90;;;;;;5053466;28;20106;-39
2023/03/22 10:18:37;;;;;;;2.33;0.98;;;11.90;99.90;;;;;;5053493;28;20071;-35
2023/03/22 10:21:09;;;;;;;1.00;0.80;;;11.90;99.90;;;;;;5053258;28;20171;-37
2023/03/22 10:23:50;;;;;;;1.95;0.95;;;11.90;99.90;;;;;;5053502;28;20025;-38
2023/03/22 10:26:28;;;;;;;2.65;0.98;;;12.00;99.90;;;;;;5053239;28;20147;-35
2023/03/22 10:29:02;;;;;;;1.88;1.10;;;12.00;99.90;;;;;;5053326;28;20025;-38
2023/03/22 10:31:29;;;;;;;;;;;12.00;99.90;;;;;;5053723;28;20031;-39
2023/03/22 10:33:57;;;;;;;1.50;0.80;;;12.00;99.90;;;;;;5053388;28;19908;-37
2023/03/22 10:36:29;;;;;;;1.63;1.00;;;12.00;99.90;;;;;;5053215;28;20118;-36
2023/03/22 10:39:02;;;;;;;1.35;0.73;;;12.00;99.90;;;;;;5053044;28;20017;-35
2023/03/22 10:41:31;;;;;;;1.67;0.90;;;12.10;99.90;;;;;;5053184;28;20024;-36
2023/03/22 10:44:00;;;;;;;2.17;0.75;;;12.10;99.90;;;;;;5052835;28;20029;-37
2023/03/22 10:46:40;;;;;;;1.20;0.80;;;12.10;99.90;;;;;;5052793;28;20086;-35
2023/03/22 10:49:11;;;;;;;1.13;0.80;;;12.10;99.90;;;;;;5052932;28;20025;-37
2023/03/22 10:51:45;;;;;;;1.48;0.93;;;12.10;99.90;;;;;;5052733;28;20094;-38
2023/03/22 10:54:16;;;;;;;1.67;0.90;;;12.10;99.90;;;;;;5052559;28;20051;-38
2023/03/22 10:56:42;;;;;;;1.38;0.80;;;12.10;99.90;;;;;;5052686;28;20116;-39
2023/03/22 10:59:28;;;;;;;1.15;0.75;;;12.10;99.90;;;;;;5052685;28;20132;-36
2023/03/22 11:01:53;;;;;;;1.35;0.77;;;12.10;99.90;;;;;;5052629;28;20060;-36
2023/03/22 11:04:19;;;;;;;1.50;0.65;;;12.10;99.90;;;;;;5052606;28;20056;-35
2023/03/22 11:06:50;;;;;;;1.92;0.88;;;12.10;99.90;;;;;;5052116;28;20049;-37
2023/03/22 11:09:19;;;;;;;1.02;0.80;;;12.10;99.90;;;;;;5052445;28;20078;-35
2023/03/22 11:11:53;;;;;;;2.90;0.70;;;12.10;99.90;;;;;;5052366;28;20025;-36
2023/03/22 11:14:34;;;;;;;1.85;0.63;;;12.10;99.90;;;;;;5052247;28;20021;-37
2023/03/22 11:17:11;;;;;;;1.75;0.70;;;12.20;99.90;;;;;;5052114;28;20055;-36
2023/03/22 11:19:40;;;;;;;1.02;0.70;;;12.20;99.90;;;;;;5052216;28;20537;-39
2023/03/22 11:22:41;;;;;;;0.93;0.70;;;12.20;99.90;;;;;;5052197;28;20025;-36
2023/03/22 11:25:16;;;;;;;1.52;0.80;;;12.20;99.90;;;;;;5052604;28;20386;-39
2023/03/22 11:28:15;;;;;;;1.35;0.73;;;12.20;99.90;;;;;;5052213;28;20395;-38
2023/03/22 11:31:10;;;;;;;0.77;0.60;;;12.20;99.90;;;;;;5052153;28;20052;-39
2023/03/22 11:33:37;;;;;;;1.25;0.70;;;12.20;99.90;;;;;;5051866;28;20025;-38
2023/03/22 11:36:21;;;;;;;1.13;0.60;;;12.20;99.90;;;;;;5051668;28;20441;-35
2023/03/22 11:38:46;;;;;;;1.42;0.80;;;12.30;99.90;;;;;;5051934;28;20017;-36
2023/03/22 11:41:26;;;;;;;1.27;0.82;;;12.30;99.90;;;;;;5051824;28;20059;-37
2023/03/22 11:43:54;;;;;;;1.10;0.73;;;12.30;99.90;;;;;;5051803;28;20039;-35
2023/03/22 11:46:21;;;;;;;1.00;0.52;;;12.30;99.90;;;;;;5051541;28;20296;-37
2023/03/22 11:48:50;;;;;;;1.00;0.70;;;12.30;99.90;;;;;;5051683;28;20497;-35
2023/03/22 11:51:32;;;;;;;1.05;0.60;;;12.30;99.90;;;;;;5051727;28;20025;-35
2023/03/22 11:54:33;;;;;;;1.60;0.77;;;12.30;99.90;;;;;;5051561;28;20021;-38
2023/03/22 11:57:03;;;;;;;0.73;0.50;;;12.30;99.90;;;;;;5039367;28;20033;-39
2023/03/22 11:59:45;;;;;;;0.70;0.60;;;12.30;99.90;;;;;;5051783;28;20048;-37
2023/03/22 12:02:17;;;;;;;1.08;0.70;;;12.30;99.90;;;;;;5051464;28;20064;-37
2023/03/22 12:04:46;;;;;;;0.93;0.70;;;12.30;99.90;;;;;;5050194;28;20028;-37
2023/03/22 12:07:23;;;;;;;0.80;0.60;;;12.30;99.90;;;;;;5051243;28;20075;-38
2023/03/22 12:09:49;;;;;;;1.10;0.70;;;12.30;99.90;;;;;;5051665;28;20031;-39
2023/03/22 12:12:20;;;;;;;1.50;0.80;;;12.30;99.90;;;;;;5051420;28;20504;-39
2023/03/22 12:14:52;;;;;;;1.48;0.70;;;12.30;99.90;;;;;;5051238;28;20033;-38
2023/03/22 12:17:47;;;;;;;1.30;0.65;;;12.30;99.90;;;;;;5051267;28;20416;-38
2023/03/22 12:20:22;;;;;;;1.02;0.75;;;12.40;99.90;;;;;;5048154;28;20375;-37
2023/03/22 12:22:53;;;;;;;1.23;0.68;;;12.30;99.90;;;;;;5051273;28;20025;-37
2023/03/22 12:25:26;;;;;;;0.93;0.68;;;12.30;99.90;;;;;;5051710;28;20395;-37
2023/03/22 12:28:20;;;;;;;1.08;0.60;;;12.40;99.90;;;;;;5051337;28;20041;-38
2023/03/22 12:30:50;;;;;;;1.38;0.50;;;12.40;99.90;;;;;;5050222;28;20079;-37
2023/03/22 12:33:29;;;;;;;0.85;0.50;;;12.40;99.90;;;;;;5051025;28;20477;-38
2023/03/22 12:35:59;;;;;;;1.33;0.60;;;12.40;99.90;;;;;;5050876;28;20021;-38
2023/03/22 12:38:47;;;;;;;0.73;0.50;;;12.40;99.90;;;;;;5051012;28;20103;-38
2023/03/22 12:41:17;;;;;;;1.55;0.70;;;12.40;99.90;;;;;;5051057;28;20025;-37
2023/03/22 12:43:52;;;;;;;1.17;0.60;;;12.40;99.90;;;;;;5050985;28;20025;-37
2023/03/22 12:46:45;;;;;;;0.98;0.55;;;12.40;99.90;;;;;;5050714;28;20033;-38
2023/03/22 12:49:36;;;;;;;1.27;0.47;;;12.40;99.90;;;;;;5049765;28;20025;-39
2023/03/22 12:52:19;;;;;;;1.35;0.60;;;12.40;99.90;;;;;;5051008;28;20021;-35
2023/03/22 12:54:48;;;;;;;0.60;0.50;;;12.60;99.90;;;;;;5050605;28;20471;-38
2023/03/22 12:57:17;;;;;;;0.95;0.50;;;12.60;99.90;;;;;;5050650;28;20024;-38
2023/03/22 12:59:47;;;;;;;0.70;0.50;;;12.70;99.90;;;;;;5050899;28;20522;-39
2023/03/22 13:02:26;;;;;;;0.98;0.70;;;12.70;99.90;;;;;;5050941;28;20486;-36
2023/03/22 13:04:59;;;;;;;0.50;0.40;;;12.60;99.90;;;;;;5050764;28;20025;-39